sensor_id;sensor_type;location;lat;lon;timestamp;temperature;humidity
42227;DHT22;27892;52.378;13.122;2022-11-23T00:00:58;4.60;74.70
42227;DHT22;27892;52.378;13.122;2022-11-23T00:03:23;4.60;74.80
42227;DHT22;27892;52.378;13.122;2022-11-23T00:05:49;4.60;74.40
42227;DHT22;27892;52.378;13.122;2022-11-23T00:08:15;4.70;74.70
42227;DHT22;27892;52.378;13.122;2022-11-23T00:10:41;4.70;74.50
42227;DHT22;27892;52.378;13.122;2022-11-23T00:13:07;4.70;74.70
42227;DHT22;27892;52.378;13.122;2022-11-23T00:15:32;4.80;74.30
42227;DHT22;27892;52.378;13.122;2022-11-23T00:17:59;4.80;73.90
42227;DHT22;27892;52.378;13.122;2022-11-23T00:20:25;4.80;73.80
42227;DHT22;27892;52.378;13.122;2022-11-23T00:22:51;4.80;73.40
42227;DHT22;27892;52.378;13.122;2022-11-23T00:25:16;4.70;73.40
42227;DHT22;27892;52.378;13.122;2022-11-23T00:27:42;4.70;73.60
42227;DHT22;27892;52.378;13.122;2022-11-23T00:30:08;4.70;73.90
42227;DHT22;27892;52.378;13.122;2022-11-23T00:32:34;4.70;73.70
42227;DHT22;27892;52.378;13.122;2022-11-23T00:35:00;4.60;73.40
42227;DHT22;27892;52.378;13.122;2022-11-23T00:37:25;4.60;73.40
42227;DHT22;27892;52.378;13.122;2022-11-23T00:39:51;4.60;73.00
42227;DHT22;27892;52.378;13.122;2022-11-23T00:42:17;4.50;73.70
42227;DHT22;27892;52.378;13.122;2022-11-23T00:44:42;4.50;73.80
42227;DHT22;27892;52.378;13.122;2022-11-23T00:47:08;4.60;74.10
42227;DHT22;27892;52.378;13.122;2022-11-23T00:49:33;4.50;74.00
42227;DHT22;27892;52.378;13.122;2022-11-23T00:51:59;4.60;74.20
42227;DHT22;27892;52.378;13.122;2022-11-23T00:54:25;4.60;74.40
42227;DHT22;27892;52.378;13.122;2022-11-23T00:56:50;4.60;74.40
42227;DHT22;27892;52.378;13.122;2022-11-23T00:59:16;4.70;74.80
42227;DHT22;27892;52.378;13.122;2022-11-23T01:01:41;4.70;74.50
42227;DHT22;27892;52.378;13.122;2022-11-23T01:04:07;4.80;74.40
42227;DHT22;27892;52.378;13.122;2022-11-23T01:06:36;4.80;74.50
42227;DHT22;27892;52.378;13.122;2022-11-23T01:09:06;4.80;74.50
42227;DHT22;27892;52.378;13.122;2022-11-23T01:11:32;4.90;74.40
42227;DHT22;27892;52.378;13.122;2022-11-23T01:13:58;4.90;74.30
42227;DHT22;27892;52.378;13.122;2022-11-23T01:16:30;4.90;74.30
42227;DHT22;27892;52.378;13.122;2022-11-23T01:18:58;5.00;74.50
42227;DHT22;27892;52.378;13.122;2022-11-23T01:21:26;5.00;74.20
42227;DHT22;27892;52.378;13.122;2022-11-23T01:23:52;5.00;74.30
42227;DHT22;27892;52.378;13.122;2022-11-23T01:26:18;5.10;74.60
42227;DHT22;27892;52.378;13.122;2022-11-23T01:28:43;5.10;74.00
42227;DHT22;27892;52.378;13.122;2022-11-23T01:31:11;5.20;74.00
42227;DHT22;27892;52.378;13.122;2022-11-23T01:33:38;5.20;73.90
42227;DHT22;27892;52.378;13.122;2022-11-23T01:36:15;5.20;73.90
42227;DHT22;27892;52.378;13.122;2022-11-23T01:38:41;5.20;74.20
42227;DHT22;27892;52.378;13.122;2022-11-23T01:41:10;5.20;73.80
42227;DHT22;27892;52.378;13.122;2022-11-23T01:43:36;5.10;73.70
42227;DHT22;27892;52.378;13.122;2022-11-23T01:46:03;5.00;73.70
42227;DHT22;27892;52.378;13.122;2022-11-23T01:51:10;5.00;74.00
42227;DHT22;27892;52.378;13.122;2022-11-23T01:53:37;5.00;74.00
42227;DHT22;27892;52.378;13.122;2022-11-23T01:56:06;5.10;74.40
42227;DHT22;27892;52.378;13.122;2022-11-23T01:58:36;5.10;74.40
42227;DHT22;27892;52.378;13.122;2022-11-23T02:01:04;5.10;74.50
42227;DHT22;27892;52.378;13.122;2022-11-23T02:03:31;5.10;74.30
42227;DHT22;27892;52.378;13.122;2022-11-23T02:06:02;5.20;74.70
42227;DHT22;27892;52.378;13.122;2022-11-23T02:08:28;5.20;74.20
42227;DHT22;27892;52.378;13.122;2022-11-23T02:10:56;5.20;74.00
42227;DHT22;27892;52.378;13.122;2022-11-23T02:13:22;5.20;74.60
42227;DHT22;27892;52.378;13.122;2022-11-23T02:15:50;5.30;74.30
42227;DHT22;27892;52.378;13.122;2022-11-23T02:18:20;5.30;74.30
42227;DHT22;27892;52.378;13.122;2022-11-23T02:20:46;5.30;74.00
42227;DHT22;27892;52.378;13.122;2022-11-23T02:26:32;5.40;74.00
42227;DHT22;27892;52.378;13.122;2022-11-23T02:31:35;5.40;73.50
42227;DHT22;27892;52.378;13.122;2022-11-23T02:34:01;5.30;73.40
42227;DHT22;27892;52.378;13.122;2022-11-23T02:41:43;5.20;74.30
42227;DHT22;27892;52.378;13.122;2022-11-23T02:46:56;5.20;74.30
42227;DHT22;27892;52.378;13.122;2022-11-23T02:49:23;5.10;74.10
42227;DHT22;27892;52.378;13.122;2022-11-23T02:51:48;5.10;74.60
42227;DHT22;27892;52.378;13.122;2022-11-23T02:54:14;5.10;75.10
42227;DHT22;27892;52.378;13.122;2022-11-23T02:56:39;5.20;74.40
42227;DHT22;27892;52.378;13.122;2022-11-23T02:59:05;5.20;74.30
42227;DHT22;27892;52.378;13.122;2022-11-23T03:01:31;5.20;74.20
42227;DHT22;27892;52.378;13.122;2022-11-23T03:03:57;5.20;74.10
42227;DHT22;27892;52.378;13.122;2022-11-23T03:06:23;5.20;74.10
42227;DHT22;27892;52.378;13.122;2022-11-23T03:08:48;5.20;73.90
42227;DHT22;27892;52.378;13.122;2022-11-23T03:11:14;5.20;73.80
42227;DHT22;27892;52.378;13.122;2022-11-23T03:13:40;5.20;74.20
42227;DHT22;27892;52.378;13.122;2022-11-23T03:16:06;5.20;74.10
42227;DHT22;27892;52.378;13.122;2022-11-23T03:18:31;5.20;73.80
42227;DHT22;27892;52.378;13.122;2022-11-23T03:21:04;5.30;74.10
42227;DHT22;27892;52.378;13.122;2022-11-23T03:23:32;5.20;73.80
42227;DHT22;27892;52.378;13.122;2022-11-23T03:25:59;5.20;73.80
42227;DHT22;27892;52.378;13.122;2022-11-23T03:28:25;5.10;74.20
42227;DHT22;27892;52.378;13.122;2022-11-23T03:30:51;5.10;74.60
42227;DHT22;27892;52.378;13.122;2022-11-23T03:33:17;5.10;74.60
42227;DHT22;27892;52.378;13.122;2022-11-23T03:35:43;5.10;74.50
42227;DHT22;27892;52.378;13.122;2022-11-23T03:38:09;5.00;75.00
42227;DHT22;27892;52.378;13.122;2022-11-23T03:40:35;5.00;74.60
42227;DHT22;27892;52.378;13.122;2022-11-23T03:43:00;5.00;75.20
42227;DHT22;27892;52.378;13.122;2022-11-23T03:45:26;5.20;74.90
42227;DHT22;27892;52.378;13.122;2022-11-23T03:47:52;5.10;74.40
42227;DHT22;27892;52.378;13.122;2022-11-23T03:50:36;5.20;74.80
42227;DHT22;27892;52.378;13.122;2022-11-23T03:53:20;5.20;74.30
42227;DHT22;27892;52.378;13.122;2022-11-23T03:56:05;5.20;74.10
42227;DHT22;27892;52.378;13.122;2022-11-23T03:58:30;5.20;74.50
42227;DHT22;27892;52.378;13.122;2022-11-23T04:00:56;5.20;74.40
42227;DHT22;27892;52.378;13.122;2022-11-23T04:03:21;5.20;75.50
42227;DHT22;27892;52.378;13.122;2022-11-23T04:05:47;5.30;74.60
42227;DHT22;27892;52.378;13.122;2022-11-23T04:08:13;5.30;74.40
42227;DHT22;27892;52.378;13.122;2022-11-23T04:10:38;5.30;74.10
42227;DHT22;27892;52.378;13.122;2022-11-23T04:13:04;5.30;73.90
42227;DHT22;27892;52.378;13.122;2022-11-23T04:15:30;5.30;74.10
42227;DHT22;27892;52.378;13.122;2022-11-23T04:17:55;5.20;73.90
42227;DHT22;27892;52.378;13.122;2022-11-23T04:20:21;5.10;74.30
42227;DHT22;27892;52.378;13.122;2022-11-23T04:22:46;5.00;74.30
42227;DHT22;27892;52.378;13.122;2022-11-23T04:25:12;5.10;74.60
42227;DHT22;27892;52.378;13.122;2022-11-23T04:27:39;5.20;74.40
42227;DHT22;27892;52.378;13.122;2022-11-23T04:30:05;5.20;74.10
42227;DHT22;27892;52.378;13.122;2022-11-23T04:32:30;5.30;74.40
42227;DHT22;27892;52.378;13.122;2022-11-23T04:34:56;5.20;73.80
42227;DHT22;27892;52.378;13.122;2022-11-23T04:37:22;5.00;74.20
42227;DHT22;27892;52.378;13.122;2022-11-23T04:39:47;4.90;74.60
42227;DHT22;27892;52.378;13.122;2022-11-23T04:42:13;5.00;74.80
42227;DHT22;27892;52.378;13.122;2022-11-23T04:44:39;5.10;75.10
42227;DHT22;27892;52.378;13.122;2022-11-23T04:47:05;5.10;74.80
42227;DHT22;27892;52.378;13.122;2022-11-23T04:49:31;5.10;74.60
42227;DHT22;27892;52.378;13.122;2022-11-23T04:51:56;5.10;74.50
42227;DHT22;27892;52.378;13.122;2022-11-23T04:54:22;5.10;74.30
42227;DHT22;27892;52.378;13.122;2022-11-23T04:56:48;5.10;74.50
42227;DHT22;27892;52.378;13.122;2022-11-23T04:59:13;4.90;74.60
42227;DHT22;27892;52.378;13.122;2022-11-23T05:01:39;5.00;75.10
42227;DHT22;27892;52.378;13.122;2022-11-23T05:04:05;5.00;74.60
42227;DHT22;27892;52.378;13.122;2022-11-23T05:06:30;4.90;74.40
42227;DHT22;27892;52.378;13.122;2022-11-23T05:08:56;4.90;74.90
42227;DHT22;27892;52.378;13.122;2022-11-23T05:11:21;4.80;75.10
42227;DHT22;27892;52.378;13.122;2022-11-23T05:13:47;4.90;75.10
42227;DHT22;27892;52.378;13.122;2022-11-23T05:16:13;4.80;74.90
42227;DHT22;27892;52.378;13.122;2022-11-23T05:18:38;4.90;75.10
42227;DHT22;27892;52.378;13.122;2022-11-23T05:21:04;4.80;74.90
42227;DHT22;27892;52.378;13.122;2022-11-23T05:23:30;4.70;75.20
42227;DHT22;27892;52.378;13.122;2022-11-23T05:25:55;4.60;75.60
42227;DHT22;27892;52.378;13.122;2022-11-23T05:28:21;4.60;76.00
42227;DHT22;27892;52.378;13.122;2022-11-23T05:30:47;4.60;75.80
42227;DHT22;27892;52.378;13.122;2022-11-23T05:33:13;4.70;75.80
42227;DHT22;27892;52.378;13.122;2022-11-23T05:35:38;4.70;75.70
42227;DHT22;27892;52.378;13.122;2022-11-23T05:38:04;4.70;75.30
42227;DHT22;27892;52.378;13.122;2022-11-23T05:40:30;4.70;75.20
42227;DHT22;27892;52.378;13.122;2022-11-23T05:42:57;4.80;75.30
42227;DHT22;27892;52.378;13.122;2022-11-23T05:45:23;4.80;75.30
42227;DHT22;27892;52.378;13.122;2022-11-23T05:47:54;4.80;75.10
42227;DHT22;27892;52.378;13.122;2022-11-23T05:50:22;4.80;75.20
42227;DHT22;27892;52.378;13.122;2022-11-23T05:52:48;4.80;74.60
42227;DHT22;27892;52.378;13.122;2022-11-23T05:55:14;4.80;74.70
42227;DHT22;27892;52.378;13.122;2022-11-23T05:57:40;4.80;74.60
42227;DHT22;27892;52.378;13.122;2022-11-23T06:00:07;4.80;74.70
42227;DHT22;27892;52.378;13.122;2022-11-23T06:02:35;4.80;74.80
42227;DHT22;27892;52.378;13.122;2022-11-23T06:05:01;4.70;74.30
42227;DHT22;27892;52.378;13.122;2022-11-23T06:07:27;4.70;74.60
42227;DHT22;27892;52.378;13.122;2022-11-23T06:09:52;4.70;74.50
42227;DHT22;27892;52.378;13.122;2022-11-23T06:12:18;4.70;74.40
42227;DHT22;27892;52.378;13.122;2022-11-23T06:14:43;4.70;74.30
42227;DHT22;27892;52.378;13.122;2022-11-23T06:17:09;4.70;74.30
42227;DHT22;27892;52.378;13.122;2022-11-23T06:19:35;4.70;74.20
42227;DHT22;27892;52.378;13.122;2022-11-23T06:22:01;4.70;74.10
42227;DHT22;27892;52.378;13.122;2022-11-23T06:24:26;4.60;74.20
42227;DHT22;27892;52.378;13.122;2022-11-23T06:26:52;4.60;74.20
42227;DHT22;27892;52.378;13.122;2022-11-23T06:29:21;4.60;74.00
42227;DHT22;27892;52.378;13.122;2022-11-23T06:31:47;4.50;73.80
42227;DHT22;27892;52.378;13.122;2022-11-23T06:34:13;4.50;74.10
42227;DHT22;27892;52.378;13.122;2022-11-23T06:36:39;4.40;74.20
42227;DHT22;27892;52.378;13.122;2022-11-23T06:39:04;4.40;74.20
42227;DHT22;27892;52.378;13.122;2022-11-23T06:41:30;4.40;74.40
42227;DHT22;27892;52.378;13.122;2022-11-23T06:43:56;4.40;74.50
42227;DHT22;27892;52.378;13.122;2022-11-23T06:46:22;4.40;74.50
42227;DHT22;27892;52.378;13.122;2022-11-23T06:48:47;4.40;74.30
42227;DHT22;27892;52.378;13.122;2022-11-23T06:51:14;4.40;74.10
42227;DHT22;27892;52.378;13.122;2022-11-23T06:53:40;4.40;74.00
42227;DHT22;27892;52.378;13.122;2022-11-23T06:56:06;4.40;74.30
42227;DHT22;27892;52.378;13.122;2022-11-23T06:58:32;4.40;74.50
42227;DHT22;27892;52.378;13.122;2022-11-23T07:01:02;4.40;74.30
42227;DHT22;27892;52.378;13.122;2022-11-23T07:03:28;4.40;74.40
42227;DHT22;27892;52.378;13.122;2022-11-23T07:05:54;4.40;74.40
42227;DHT22;27892;52.378;13.122;2022-11-23T07:08:20;4.40;74.10
42227;DHT22;27892;52.378;13.122;2022-11-23T07:10:47;4.40;73.90
42227;DHT22;27892;52.378;13.122;2022-11-23T07:13:13;4.40;73.70
42227;DHT22;27892;52.378;13.122;2022-11-23T07:15:39;4.30;73.90
42227;DHT22;27892;52.378;13.122;2022-11-23T07:18:05;4.10;73.90
42227;DHT22;27892;52.378;13.122;2022-11-23T07:20:31;4.10;74.80
42227;DHT22;27892;52.378;13.122;2022-11-23T07:23:01;4.10;74.80
42227;DHT22;27892;52.378;13.122;2022-11-23T07:25:32;4.20;75.60
42227;DHT22;27892;52.378;13.122;2022-11-23T07:27:59;4.30;74.70
42227;DHT22;27892;52.378;13.122;2022-11-23T07:30:26;4.20;74.50
42227;DHT22;27892;52.378;13.122;2022-11-23T07:32:52;4.30;74.70
42227;DHT22;27892;52.378;13.122;2022-11-23T07:35:19;4.40;74.80
42227;DHT22;27892;52.378;13.122;2022-11-23T07:37:45;4.40;74.60
42227;DHT22;27892;52.378;13.122;2022-11-23T07:40:11;4.40;74.10
42227;DHT22;27892;52.378;13.122;2022-11-23T07:42:37;4.40;74.60
42227;DHT22;27892;52.378;13.122;2022-11-23T07:45:04;4.50;74.80
42227;DHT22;27892;52.378;13.122;2022-11-23T07:47:30;4.60;75.00
42227;DHT22;27892;52.378;13.122;2022-11-23T07:49:56;4.70;74.70
42227;DHT22;27892;52.378;13.122;2022-11-23T07:52:21;4.90;74.50
42227;DHT22;27892;52.378;13.122;2022-11-23T07:54:47;4.90;74.10
42227;DHT22;27892;52.378;13.122;2022-11-23T07:57:13;4.90;73.60
42227;DHT22;27892;52.378;13.122;2022-11-23T07:59:39;5.00;74.10
42227;DHT22;27892;52.378;13.122;2022-11-23T08:02:05;5.10;74.20
42227;DHT22;27892;52.378;13.122;2022-11-23T08:04:30;5.20;73.90
42227;DHT22;27892;52.378;13.122;2022-11-23T08:06:56;5.30;73.80
42227;DHT22;27892;52.378;13.122;2022-11-23T08:09:22;5.40;73.50
42227;DHT22;27892;52.378;13.122;2022-11-23T08:11:47;5.40;72.70
42227;DHT22;27892;52.378;13.122;2022-11-23T08:14:13;5.40;72.60
42227;DHT22;27892;52.378;13.122;2022-11-23T08:16:39;5.40;72.70
42227;DHT22;27892;52.378;13.122;2022-11-23T08:19:04;5.30;72.90
42227;DHT22;27892;52.378;13.122;2022-11-23T08:21:30;5.40;73.20
42227;DHT22;27892;52.378;13.122;2022-11-23T08:23:55;5.30;73.00
42227;DHT22;27892;52.378;13.122;2022-11-23T08:26:21;5.50;73.30
42227;DHT22;27892;52.378;13.122;2022-11-23T08:28:47;5.50;72.90
42227;DHT22;27892;52.378;13.122;2022-11-23T08:31:13;5.50;72.80
42227;DHT22;27892;52.378;13.122;2022-11-23T08:33:40;5.50;73.30
42227;DHT22;27892;52.378;13.122;2022-11-23T08:36:07;5.50;73.00
42227;DHT22;27892;52.378;13.122;2022-11-23T08:38:33;5.70;73.30
42227;DHT22;27892;52.378;13.122;2022-11-23T08:41:03;6.00;73.70
42227;DHT22;27892;52.378;13.122;2022-11-23T08:43:30;6.50;73.50
42227;DHT22;27892;52.378;13.122;2022-11-23T08:45:59;7.10;71.70
42227;DHT22;27892;52.378;13.122;2022-11-23T08:48:25;7.20;68.60
42227;DHT22;27892;52.378;13.122;2022-11-23T08:50:52;7.00;68.50
42227;DHT22;27892;52.378;13.122;2022-11-23T08:53:18;6.90;69.50
42227;DHT22;27892;52.378;13.122;2022-11-23T08:55:44;7.10;70.20
42227;DHT22;27892;52.378;13.122;2022-11-23T08:58:10;7.10;69.30
42227;DHT22;27892;52.378;13.122;2022-11-23T09:00:36;7.10;69.10
42227;DHT22;27892;52.378;13.122;2022-11-23T09:03:02;7.20;69.80
42227;DHT22;27892;52.378;13.122;2022-11-23T09:05:29;7.20;69.30
42227;DHT22;27892;52.378;13.122;2022-11-23T09:07:58;7.40;69.70
42227;DHT22;27892;52.378;13.122;2022-11-23T09:10:24;7.40;68.90
42227;DHT22;27892;52.378;13.122;2022-11-23T09:12:49;7.50;68.70
42227;DHT22;27892;52.378;13.122;2022-11-23T09:15:15;7.40;68.90
42227;DHT22;27892;52.378;13.122;2022-11-23T09:17:41;7.40;68.70
42227;DHT22;27892;52.378;13.122;2022-11-23T09:20:08;7.50;69.20
42227;DHT22;27892;52.378;13.122;2022-11-23T09:22:34;7.60;69.00
42227;DHT22;27892;52.378;13.122;2022-11-23T09:25:00;7.50;68.70
42227;DHT22;27892;52.378;13.122;2022-11-23T09:27:26;7.50;68.90
42227;DHT22;27892;52.378;13.122;2022-11-23T09:29:52;7.60;69.20
42227;DHT22;27892;52.378;13.122;2022-11-23T09:32:18;7.80;69.70
42227;DHT22;27892;52.378;13.122;2022-11-23T09:34:44;8.30;68.90
42227;DHT22;27892;52.378;13.122;2022-11-23T09:37:10;8.70;68.20
42227;DHT22;27892;52.378;13.122;2022-11-23T09:39:36;9.10;67.20
42227;DHT22;27892;52.378;13.122;2022-11-23T09:44:55;9.60;66.00
42227;DHT22;27892;52.378;13.122;2022-11-23T09:52:39;10.20;63.00
42227;DHT22;27892;52.378;13.122;2022-11-23T09:57:41;10.30;61.30
42227;DHT22;27892;52.378;13.122;2022-11-23T10:00:29;10.20;60.70
42227;DHT22;27892;52.378;13.122;2022-11-23T10:02:59;10.10;61.30
42227;DHT22;27892;52.378;13.122;2022-11-23T10:05:30;9.90;62.70
42227;DHT22;27892;52.378;13.122;2022-11-23T10:08:19;10.00;61.80
42227;DHT22;27892;52.378;13.122;2022-11-23T10:11:19;10.10;61.40
42227;DHT22;27892;52.378;13.122;2022-11-23T10:17:09;10.20;61.20
42227;DHT22;27892;52.378;13.122;2022-11-23T10:22:26;10.50;60.20
42227;DHT22;27892;52.378;13.122;2022-11-23T10:24:55;10.50;60.30
42227;DHT22;27892;52.378;13.122;2022-11-23T10:27:22;10.60;60.10
42227;DHT22;27892;52.378;13.122;2022-11-23T10:29:49;10.60;60.40
42227;DHT22;27892;52.378;13.122;2022-11-23T10:32:34;10.60;59.70
42227;DHT22;27892;52.378;13.122;2022-11-23T10:35:15;10.60;59.40
42227;DHT22;27892;52.378;13.122;2022-11-23T10:37:41;10.50;59.90
42227;DHT22;27892;52.378;13.122;2022-11-23T10:40:17;10.80;59.80
42227;DHT22;27892;52.378;13.122;2022-11-23T10:42:47;11.10;59.70
42227;DHT22;27892;52.378;13.122;2022-11-23T10:45:19;11.00;58.70
42227;DHT22;27892;52.378;13.122;2022-11-23T10:47:50;11.20;59.50
42227;DHT22;27892;52.378;13.122;2022-11-23T10:50:23;11.30;58.70
42227;DHT22;27892;52.378;13.122;2022-11-23T10:52:59;11.20;58.50
42227;DHT22;27892;52.378;13.122;2022-11-23T10:55:30;11.20;58.30
42227;DHT22;27892;52.378;13.122;2022-11-23T10:57:56;11.10;58.70
42227;DHT22;27892;52.378;13.122;2022-11-23T11:00:23;11.20;59.10
42227;DHT22;27892;52.378;13.122;2022-11-23T11:02:51;11.20;57.90
42227;DHT22;27892;52.378;13.122;2022-11-23T11:07:57;11.30;59.50
42227;DHT22;27892;52.378;13.122;2022-11-23T11:12:58;11.50;57.90
42227;DHT22;27892;52.378;13.122;2022-11-23T11:15:24;11.50;58.30
42227;DHT22;27892;52.378;13.122;2022-11-23T11:17:58;11.40;57.90
42227;DHT22;27892;52.378;13.122;2022-11-23T11:22:53;11.20;59.10
42227;DHT22;27892;52.378;13.122;2022-11-23T11:25:36;11.20;58.50
42227;DHT22;27892;52.378;13.122;2022-11-23T11:28:04;11.30;59.10
42227;DHT22;27892;52.378;13.122;2022-11-23T11:36:59;11.40;59.30
42227;DHT22;27892;52.378;13.122;2022-11-23T11:39:33;11.50;59.10
42227;DHT22;27892;52.378;13.122;2022-11-23T11:42:03;11.60;58.60
42227;DHT22;27892;52.378;13.122;2022-11-23T11:44:31;11.30;57.90
42227;DHT22;27892;52.378;13.122;2022-11-23T11:47:27;11.40;58.80
42227;DHT22;27892;52.378;13.122;2022-11-23T11:49:53;11.60;59.10
42227;DHT22;27892;52.378;13.122;2022-11-23T11:52:24;11.70;58.50
42227;DHT22;27892;52.378;13.122;2022-11-23T11:55:39;11.80;58.90
42227;DHT22;27892;52.378;13.122;2022-11-23T11:57:46;12.00;58.90
42227;DHT22;27892;52.378;13.122;2022-11-23T12:00:17;12.10;57.90
42227;DHT22;27892;52.378;13.122;2022-11-23T12:05:45;12.10;58.50
42227;DHT22;27892;52.378;13.122;2022-11-23T12:08:30;12.10;58.10
42227;DHT22;27892;52.378;13.122;2022-11-23T12:10:59;12.20;58.70
42227;DHT22;27892;52.378;13.122;2022-11-23T12:13:27;12.20;57.90
42227;DHT22;27892;52.378;13.122;2022-11-23T12:16:19;12.10;58.40
42227;DHT22;27892;52.378;13.122;2022-11-23T12:19:07;12.30;58.40
42227;DHT22;27892;52.378;13.122;2022-11-23T12:24:19;12.40;57.90
42227;DHT22;27892;52.378;13.122;2022-11-23T12:27:07;12.40;58.20
42227;DHT22;27892;52.378;13.122;2022-11-23T12:29:58;12.40;58.50
42227;DHT22;27892;52.378;13.122;2022-11-23T12:35:54;13.10;57.50
42227;DHT22;27892;52.378;13.122;2022-11-23T12:38:54;12.80;56.70
42227;DHT22;27892;52.378;13.122;2022-11-23T12:41:36;12.50;57.50
42227;DHT22;27892;52.378;13.122;2022-11-23T12:47:39;12.70;57.50
42227;DHT22;27892;52.378;13.122;2022-11-23T12:55:47;12.50;57.50
42227;DHT22;27892;52.378;13.122;2022-11-23T12:58:27;12.30;57.60
42227;DHT22;27892;52.378;13.122;2022-11-23T13:01:04;12.20;58.10
42227;DHT22;27892;52.378;13.122;2022-11-23T13:06:25;12.20;58.30
42227;DHT22;27892;52.378;13.122;2022-11-23T13:11:59;12.40;58.70
42227;DHT22;27892;52.378;13.122;2022-11-23T13:14:38;12.60;58.90
42227;DHT22;27892;52.378;13.122;2022-11-23T13:22:29;12.80;57.60
42227;DHT22;27892;52.378;13.122;2022-11-23T13:32:56;12.70;57.70
42227;DHT22;27892;52.378;13.122;2022-11-23T13:42:56;12.60;57.90
42227;DHT22;27892;52.378;13.122;2022-11-23T13:45:29;12.40;58.60
42227;DHT22;27892;52.378;13.122;2022-11-23T13:50:55;12.60;58.00
42227;DHT22;27892;52.378;13.122;2022-11-23T13:53:38;12.40;57.70
42227;DHT22;27892;52.378;13.122;2022-11-23T13:59:41;12.00;58.10
42227;DHT22;27892;52.378;13.122;2022-11-23T14:04:37;11.70;58.70
42227;DHT22;27892;52.378;13.122;2022-11-23T14:09:56;11.60;58.70
42227;DHT22;27892;52.378;13.122;2022-11-23T14:12:43;11.70;58.90
42227;DHT22;27892;52.378;13.122;2022-11-23T14:15:18;11.70;58.80
42227;DHT22;27892;52.378;13.122;2022-11-23T14:20:42;11.60;58.60
42227;DHT22;27892;52.378;13.122;2022-11-23T14:26:32;11.50;58.80
42227;DHT22;27892;52.378;13.122;2022-11-23T14:29:25;11.30;59.10
42227;DHT22;27892;52.378;13.122;2022-11-23T14:37:39;11.00;59.70
42227;DHT22;27892;52.378;13.122;2022-11-23T14:40:27;10.90;60.00
42227;DHT22;27892;52.378;13.122;2022-11-23T14:42:56;10.90;60.40
42227;DHT22;27892;52.378;13.122;2022-11-23T14:45:26;10.80;60.50
42227;DHT22;27892;52.378;13.122;2022-11-23T14:47:52;10.80;60.60
42227;DHT22;27892;52.378;13.122;2022-11-23T14:52:47;10.70;61.00
42227;DHT22;27892;52.378;13.122;2022-11-23T14:55:22;10.60;61.40
42227;DHT22;27892;52.378;13.122;2022-11-23T14:57:49;10.60;61.40
42227;DHT22;27892;52.378;13.122;2022-11-23T15:02:53;10.50;61.80
42227;DHT22;27892;52.378;13.122;2022-11-23T15:05:38;10.40;61.80
42227;DHT22;27892;52.378;13.122;2022-11-23T15:13:29;10.40;62.30
42227;DHT22;27892;52.378;13.122;2022-11-23T15:15:56;10.30;62.20
42227;DHT22;27892;52.378;13.122;2022-11-23T15:18:45;10.30;62.30
42227;DHT22;27892;52.378;13.122;2022-11-23T15:23:59;10.00;62.80
42227;DHT22;27892;52.378;13.122;2022-11-23T15:26:31;9.90;64.50
42227;DHT22;27892;52.378;13.122;2022-11-23T15:28:58;9.80;64.90
42227;DHT22;27892;52.378;13.122;2022-11-23T15:31:35;9.70;65.30
42227;DHT22;27892;52.378;13.122;2022-11-23T15:34:05;9.60;65.50
42227;DHT22;27892;52.378;13.122;2022-11-23T15:36:37;9.60;65.60
42227;DHT22;27892;52.378;13.122;2022-11-23T15:39:04;9.50;66.00
42227;DHT22;27892;52.378;13.122;2022-11-23T15:41:35;9.50;66.00
42227;DHT22;27892;52.378;13.122;2022-11-23T15:44:24;9.40;65.90
42227;DHT22;27892;52.378;13.122;2022-11-23T15:47:02;9.40;66.00
42227;DHT22;27892;52.378;13.122;2022-11-23T15:49:37;9.30;66.40
42227;DHT22;27892;52.378;13.122;2022-11-23T15:52:09;9.30;66.70
42227;DHT22;27892;52.378;13.122;2022-11-23T15:54:37;9.30;66.80
42227;DHT22;27892;52.378;13.122;2022-11-23T15:57:11;9.10;67.40
42227;DHT22;27892;52.378;13.122;2022-11-23T15:59:47;9.20;67.70
42227;DHT22;27892;52.378;13.122;2022-11-23T16:02:20;9.20;67.50
42227;DHT22;27892;52.378;13.122;2022-11-23T16:04:46;9.10;67.30
42227;DHT22;27892;52.378;13.122;2022-11-23T16:07:20;9.20;67.70
42227;DHT22;27892;52.378;13.122;2022-11-23T16:09:48;9.20;67.80
42227;DHT22;27892;52.378;13.122;2022-11-23T16:12:21;9.20;67.50
42227;DHT22;27892;52.378;13.122;2022-11-23T16:14:48;9.30;67.60
42227;DHT22;27892;52.378;13.122;2022-11-23T16:17:25;9.20;67.50
42227;DHT22;27892;52.378;13.122;2022-11-23T16:20:01;9.20;67.20
42227;DHT22;27892;52.378;13.122;2022-11-23T16:22:39;9.20;67.60
42227;DHT22;27892;52.378;13.122;2022-11-23T16:27:33;9.00;67.90
42227;DHT22;27892;52.378;13.122;2022-11-23T16:30:00;9.10;67.90
42227;DHT22;27892;52.378;13.122;2022-11-23T16:32:29;9.00;67.40
42227;DHT22;27892;52.378;13.122;2022-11-23T16:35:05;8.90;67.70
42227;DHT22;27892;52.378;13.122;2022-11-23T16:37:35;8.90;68.20
42227;DHT22;27892;52.378;13.122;2022-11-23T16:40:01;8.80;67.80
42227;DHT22;27892;52.378;13.122;2022-11-23T16:42:27;8.80;67.90
42227;DHT22;27892;52.378;13.122;2022-11-23T16:44:52;8.70;67.90
42227;DHT22;27892;52.378;13.122;2022-11-23T16:47:23;8.70;68.20
42227;DHT22;27892;52.378;13.122;2022-11-23T16:49:50;8.60;68.30
42227;DHT22;27892;52.378;13.122;2022-11-23T16:52:16;8.60;68.40
42227;DHT22;27892;52.378;13.122;2022-11-23T16:54:42;8.50;68.50
42227;DHT22;27892;52.378;13.122;2022-11-23T16:57:19;8.50;68.60
42227;DHT22;27892;52.378;13.122;2022-11-23T16:59:46;8.40;68.70
42227;DHT22;27892;52.378;13.122;2022-11-23T17:02:13;8.30;69.00
42227;DHT22;27892;52.378;13.122;2022-11-23T17:04:39;8.30;69.10
42227;DHT22;27892;52.378;13.122;2022-11-23T17:07:05;8.20;69.20
42227;DHT22;27892;52.378;13.122;2022-11-23T17:09:31;8.20;69.20
42227;DHT22;27892;52.378;13.122;2022-11-23T17:11:56;8.20;70.10
42227;DHT22;27892;52.378;13.122;2022-11-23T17:14:22;8.20;69.30
42227;DHT22;27892;52.378;13.122;2022-11-23T17:16:50;8.10;69.30
42227;DHT22;27892;52.378;13.122;2022-11-23T17:19:19;8.10;69.50
42227;DHT22;27892;52.378;13.122;2022-11-23T17:21:45;8.00;69.60
42227;DHT22;27892;52.378;13.122;2022-11-23T17:24:11;8.00;69.80
42227;DHT22;27892;52.378;13.122;2022-11-23T17:26:49;7.90;69.90
42227;DHT22;27892;52.378;13.122;2022-11-23T17:29:18;7.90;70.10
42227;DHT22;27892;52.378;13.122;2022-11-23T17:31:45;7.80;70.20
42227;DHT22;27892;52.378;13.122;2022-11-23T17:34:17;7.70;70.40
42227;DHT22;27892;52.378;13.122;2022-11-23T17:36:44;7.70;70.60
42227;DHT22;27892;52.378;13.122;2022-11-23T17:39:20;7.70;70.70
42227;DHT22;27892;52.378;13.122;2022-11-23T17:41:47;7.70;70.90
42227;DHT22;27892;52.378;13.122;2022-11-23T17:44:16;7.70;70.50
42227;DHT22;27892;52.378;13.122;2022-11-23T17:46:45;7.70;70.70
42227;DHT22;27892;52.378;13.122;2022-11-23T17:49:13;7.60;70.90